Terminal Aerodrome Forecast
Issued by NWS

Home | Current Version | Previous Version | Text Only | Print | Product List | Glossary On
Versions: 1 2 3 4 5 6 7 8 9 10 11 12 13 14 15 16 17
473
FTUS45 KABQ 202340
TAFROW
TAF
KROW 202340Z 2100/2124 32011KT P6SM VCSH SCT050 BKN100
      TEMPO 2100/2104 VRB15G25KT 6SM -TSRA SCT030 BKN050CB
     FM210400 36010KT P6SM VCSH SCT020 BKN040
     FM211000 VRB06KT 3SM BR VCFG SCT005
     FM211600 16010KT P6SM SCT015 BKN060=

USA.gov is the U.S. government's official web portal to all federal, state and local government web resources and services.